Time;durP1;ratioP1;P1;durP2;ratioP2;P2;SDS_P1;SDS_P2;PMS_P1;PMS_P2;Temp;Humidity;BMP_temperature;BMP_pressure;BME280_temperature;BME280_humidity;BME280_pressure;Samples;Min_cycle;Max_cycle;Signal;HPM_P1;HPM_P2
2023/05/03 00:01:01;;;;;;;7.43;2.40;;;9.80;56.80;;;;;;4968928;28;20118;-81
2023/05/03 00:03:28;;;;;;;5.03;2.88;;;9.80;57.00;;;;;;4972608;28;20007;-80
2023/05/03 00:05:54;;;;;;;4.18;2.47;;;9.80;57.10;;;;;;4975967;28;20407;-80
2023/05/03 00:08:20;;;;;;;5.68;3.55;;;9.70;57.10;;;;;;4965779;28;20032;-80
2023/05/03 00:10:46;;;;;;;5.15;2.42;;;9.70;57.30;;;;;;4962543;28;20022;-80
2023/05/03 00:13:12;;;;;;;4.45;2.38;;;9.70;57.40;;;;;;4968340;28;20552;-81
2023/05/03 00:15:38;;;;;;;6.07;3.05;;;9.70;57.50;;;;;;4958934;28;20022;-80
2023/05/03 00:18:05;;;;;;;7.25;2.45;;;9.70;57.70;;;;;;4944665;28;20039;-79
2023/05/03 00:20:31;;;;;;;8.77;3.37;;;9.60;57.60;;;;;;4960067;28;20037;-80
2023/05/03 00:22:57;;;;;;;7.18;2.50;;;9.60;57.70;;;;;;4963508;28;20275;-80
2023/05/03 00:25:23;;;;;;;4.03;2.20;;;9.60;57.80;;;;;;4961110;28;20473;-80
2023/05/03 00:27:49;;;;;;;5.70;3.05;;;9.60;57.70;;;;;;4960454;28;20061;-80
2023/05/03 00:30:15;;;;;;;5.65;2.90;;;9.60;57.90;;;;;;4960738;28;20027;-80
2023/05/03 00:32:40;;;;;;;3.88;2.00;;;9.60;57.90;;;;;;4962813;28;20118;-80
2023/05/03 00:35:07;;;;;;;4.00;2.33;;;9.60;57.90;;;;;;4960641;28;20467;-80
2023/05/03 00:37:32;;;;;;;6.13;2.55;;;9.60;57.90;;;;;;4960874;28;20448;-81
2023/05/03 00:39:58;;;;;;;5.18;2.33;;;9.60;57.90;;;;;;4966995;28;20033;-79
2023/05/03 00:42:24;;;;;;;2.92;2.00;;;9.60;58.00;;;;;;4968509;28;20035;-79
2023/05/03 00:44:50;;;;;;;7.78;3.15;;;9.60;58.10;;;;;;4961325;28;20028;-81
2023/05/03 00:47:16;;;;;;;4.60;2.88;;;9.60;58.10;;;;;;4969767;28;20380;-79
2023/05/03 00:49:43;;;;;;;4.03;2.22;;;9.60;58.20;;;;;;4962556;28;20047;-82
2023/05/03 00:52:10;;;;;;;4.30;2.37;;;9.60;58.10;;;;;;4960421;28;20039;-79
2023/05/03 00:54:36;;;;;;;5.55;2.88;;;9.60;58.10;;;;;;4967130;28;20014;-80
2023/05/03 00:57:04;;;;;;;7.47;2.93;;;9.60;58.10;;;;;;4972146;28;20469;-82
2023/05/03 00:59:31;;;;;;;7.13;2.70;;;9.60;58.20;;;;;;4965134;28;20033;-79
2023/05/03 01:01:57;;;;;;;3.28;2.40;;;9.60;58.20;;;;;;4959572;28;20102;-79
2023/05/03 01:04:23;;;;;;;7.82;2.65;;;9.60;58.30;;;;;;4962506;28;20435;-79
2023/05/03 01:07:24;;;;;;;4.97;2.13;;;9.60;58.50;;;;;;4970769;28;20545;-79
2023/05/03 01:10:11;;;;;;;5.35;2.50;;;9.50;58.40;;;;;;4956444;28;20492;-79
2023/05/03 01:12:49;;;;;;;4.80;2.37;;;9.50;58.60;;;;;;4968305;28;20118;-79
2023/05/03 01:15:28;;;;;;;3.85;2.67;;;9.50;58.50;;;;;;4938558;28;20094;-80
2023/05/03 01:18:03;;;;;;;5.47;2.63;;;9.40;58.60;;;;;;4942105;28;20035;-81
2023/05/03 01:20:31;;;;;;;3.58;2.08;;;9.50;58.70;;;;;;4956845;28;20464;-80
2023/05/03 01:22:57;;;;;;;5.75;2.75;;;9.50;58.60;;;;;;4975347;28;20031;-80
2023/05/03 01:25:23;;;;;;;3.38;1.88;;;9.40;58.80;;;;;;4962794;28;20024;-79
2023/05/03 01:27:49;;;;;;;3.72;2.13;;;9.50;58.90;;;;;;4958466;28;20141;-80
2023/05/03 01:30:15;;;;;;;5.93;2.35;;;9.50;58.90;;;;;;4968440;28;20061;-80
2023/05/03 01:33:18;;;;;;;5.28;2.63;;;9.50;59.00;;;;;;4966216;28;20086;-81
2023/05/03 01:35:55;;;;;;;2.50;2.28;;;9.50;59.10;;;;;;4963783;28;20105;-80
2023/05/03 01:38:22;;;;;;;3.95;2.17;;;9.50;59.10;;;;;;4958853;28;20498;-81
2023/05/03 01:40:51;;;;;;;3.25;1.77;;;9.50;58.80;;;;;;4962508;28;20354;-80
2023/05/03 01:43:18;;;;;;;3.85;2.78;;;9.60;58.90;;;;;;4959377;28;20023;-81
2023/05/03 01:45:44;;;;;;;3.83;2.10;;;9.60;58.90;;;;;;4970416;28;20031;-82
2023/05/03 01:48:18;;;;;;;8.55;2.38;;;9.60;58.80;;;;;;4974146;28;20484;-80
2023/05/03 01:50:44;;;;;;;3.42;2.10;;;9.60;58.80;;;;;;4968310;28;20039;-82
2023/05/03 01:53:10;;;;;;;4.40;2.55;;;9.60;58.90;;;;;;4957006;28;20138;-81
2023/05/03 01:55:36;;;;;;;3.78;1.75;;;9.60;58.90;;;;;;4974588;28;20338;-80
2023/05/03 01:58:02;;;;;;;5.50;2.05;;;9.60;59.00;;;;;;4974191;28;20027;-80
2023/05/03 02:00:28;;;;;;;5.65;2.40;;;9.60;58.90;;;;;;4956785;28;20487;-80
2023/05/03 02:02:54;;;;;;;4.60;2.28;;;9.60;59.00;;;;;;4966494;28;20074;-78
2023/05/03 02:05:20;;;;;;;3.30;2.40;;;9.70;58.60;;;;;;4956151;28;20058;-79
2023/05/03 02:07:46;;;;;;;3.83;2.20;;;9.70;58.60;;;;;;4974185;28;20548;-80
2023/05/03 02:10:13;;;;;;;2.33;2.03;;;9.80;58.70;;;;;;4955458;28;20118;-79
2023/05/03 02:12:42;;;;;;;5.65;2.63;;;9.80;58.50;;;;;;4971516;28;20567;-80
2023/05/03 02:15:10;;;;;;;4.53;2.25;;;9.80;58.40;;;;;;4972714;28;20507;-79
2023/05/03 02:17:36;;;;;;;4.40;2.10;;;9.80;58.40;;;;;;4972259;28;20066;-80
2023/05/03 02:20:04;;;;;;;3.38;2.30;;;9.90;58.30;;;;;;4974492;28;20026;-79
2023/05/03 02:22:31;;;;;;;5.88;3.05;;;9.90;58.30;;;;;;4971932;28;20023;-81
2023/05/03 02:24:57;;;;;;;3.38;2.22;;;10.00;58.30;;;;;;4956806;28;20106;-80
2023/05/03 02:27:23;;;;;;;3.53;1.90;;;10.00;58.20;;;;;;4957165;28;20583;-79
2023/05/03 02:29:50;;;;;;;3.90;2.20;;;10.10;58.30;;;;;;4956137;28;20081;-81
2023/05/03 02:32:16;;;;;;;3.08;2.08;;;10.10;58.30;;;;;;4958604;28;20050;-80
2023/05/03 02:34:46;;;;;;;6.00;2.03;;;10.20;58.20;;;;;;4956855;28;20023;-79
2023/05/03 02:37:12;;;;;;;4.20;2.03;;;10.20;57.80;;;;;;4957499;28;20027;-78
2023/05/03 02:39:38;;;;;;;7.32;1.98;;;10.30;57.80;;;;;;4957185;28;20031;-80
2023/05/03 02:42:04;;;;;;;4.43;2.05;;;10.30;57.50;;;;;;4956961;28;20514;-79
2023/05/03 02:44:30;;;;;;;4.55;2.20;;;10.30;57.70;;;;;;4960212;28;20027;-80
2023/05/03 02:46:56;;;;;;;5.25;2.65;;;10.30;57.80;;;;;;4966705;28;20384;-79
2023/05/03 02:49:22;;;;;;;10.13;2.53;;;10.40;57.50;;;;;;4961419;28;20025;-78
2023/05/03 02:51:48;;;;;;;7.03;2.25;;;10.40;57.60;;;;;;4968882;28;20029;-79
2023/05/03 02:54:14;;;;;;;4.53;2.05;;;10.40;57.50;;;;;;4971877;28;20396;-79
2023/05/03 02:56:39;;;;;;;5.40;2.25;;;10.50;58.00;;;;;;4968659;28;20027;-78
2023/05/03 02:59:05;;;;;;;2.08;1.88;;;10.50;57.50;;;;;;4964732;28;20030;-80
2023/05/03 03:01:32;;;;;;;5.78;2.67;;;10.50;57.50;;;;;;4971303;28;20015;-79
2023/05/03 03:03:58;;;;;;;3.47;2.13;;;10.50;57.60;;;;;;4955005;28;20035;-80
2023/05/03 03:06:24;;;;;;;3.35;1.83;;;10.50;57.30;;;;;;4957416;28;20067;-79
2023/05/03 03:08:50;;;;;;;5.32;2.35;;;10.60;57.50;;;;;;4973496;28;20027;-80
2023/05/03 03:11:16;;;;;;;5.88;2.42;;;10.60;57.30;;;;;;4956266;28;23249;-80
2023/05/03 03:13:42;;;;;;;6.55;2.00;;;10.60;57.40;;;;;;4951504;29;20059;-81
2023/05/03 03:16:08;;;;;;;5.75;2.50;;;10.70;57.40;;;;;;4970578;28;20050;-79
2023/05/03 03:18:35;;;;;;;4.85;2.35;;;10.60;57.30;;;;;;4976903;28;20026;-80
2023/05/03 03:21:02;;;;;;;4.75;2.30;;;10.60;57.70;;;;;;4970280;28;20075;-79
2023/05/03 03:23:28;;;;;;;5.10;3.13;;;10.60;58.40;;;;;;4977312;28;20022;-79
2023/05/03 03:25:54;;;;;;;6.30;1.92;;;10.70;57.80;;;;;;4968121;28;20030;-80
2023/05/03 03:28:20;;;;;;;8.40;4.47;;;10.60;57.50;;;;;;4969220;28;20106;-81
2023/05/03 03:30:46;;;;;;;4.32;2.75;;;10.60;58.00;;;;;;4969114;28;20027;-81
2023/05/03 03:33:12;;;;;;;4.97;2.45;;;10.70;58.00;;;;;;4965047;28;20094;-82
2023/05/03 03:35:38;;;;;;;2.97;1.80;;;10.70;58.20;;;;;;4965728;28;20397;-79
2023/05/03 03:38:05;;;;;;;7.30;3.25;;;10.80;57.60;;;;;;4945481;28;20488;-80
2023/05/03 03:40:31;;;;;;;6.43;2.22;;;10.80;57.70;;;;;;4977393;28;20027;-82
2023/05/03 03:42:57;;;;;;;5.22;1.80;;;10.90;57.70;;;;;;4971024;28;20075;-79
2023/05/03 03:45:23;;;;;;;5.45;2.38;;;10.90;57.10;;;;;;4968896;28;20018;-79
2023/05/03 03:47:49;;;;;;;7.88;3.13;;;10.90;57.30;;;;;;4969079;28;20031;-80
2023/05/03 03:50:15;;;;;;;6.65;2.67;;;10.80;57.40;;;;;;4970031;28;20022;-81
2023/05/03 03:52:41;;;;;;;9.70;2.25;;;10.90;57.40;;;;;;4966735;28;20110;-80
2023/05/03 03:55:07;;;;;;;5.63;2.70;;;10.90;57.40;;;;;;4975200;28;20096;-80
2023/05/03 03:57:33;;;;;;;6.10;2.05;;;10.90;57.70;;;;;;4948109;28;20047;-79
2023/05/03 03:59:59;;;;;;;4.20;2.00;;;10.90;57.30;;;;;;4962817;28;20019;-80
2023/05/03 04:02:26;;;;;;;5.35;2.65;;;10.90;57.20;;;;;;4967401;28;20113;-81
2023/05/03 04:04:52;;;;;;;4.95;2.65;;;10.90;57.30;;;;;;4947254;28;20027;-80
2023/05/03 04:07:18;;;;;;;4.32;2.50;;;10.80;57.80;;;;;;4968042;28;20382;-81
2023/05/03 04:09:44;;;;;;;4.53;2.20;;;10.80;58.80;;;;;;4966691;28;20102;-80
2023/05/03 04:12:10;;;;;;;5.63;3.13;;;10.70;60.30;;;;;;4977377;28;20448;-81
2023/05/03 04:14:36;;;;;;;5.93;2.33;;;10.50;62.10;;;;;;4951231;28;20425;-81
2023/05/03 04:17:03;;;;;;;3.00;2.55;;;10.40;62.50;;;;;;4966550;28;20051;-80
2023/05/03 04:19:29;;;;;;;9.65;3.20;;;10.20;62.50;;;;;;4968811;28;20031;-81
2023/05/03 04:21:55;;;;;;;6.60;2.65;;;10.20;64.60;;;;;;4975711;28;20046;-80
2023/05/03 04:24:20;;;;;;;8.40;2.50;;;10.30;65.50;;;;;;4968854;28;20146;-81
2023/05/03 04:26:46;;;;;;;5.13;2.88;;;10.30;64.40;;;;;;4974425;28;20081;-81
2023/05/03 04:29:12;;;;;;;7.07;2.53;;;10.40;64.50;;;;;;4944532;28;20026;-81
2023/05/03 04:31:38;;;;;;;5.53;3.05;;;10.40;65.30;;;;;;4966736;28;20374;-83
2023/05/03 04:34:04;;;;;;;4.80;2.88;;;10.40;65.90;;;;;;4965846;28;20030;-83
2023/05/03 04:36:31;;;;;;;4.65;2.50;;;10.50;65.70;;;;;;4967579;28;20444;-82
2023/05/03 04:38:57;;;;;;;5.70;3.13;;;10.40;65.90;;;;;;4949257;28;20019;-82
2023/05/03 04:41:23;;;;;;;5.80;2.45;;;10.30;66.40;;;;;;4969286;28;20106;-82
2023/05/03 04:43:50;;;;;;;6.53;2.95;;;10.30;66.90;;;;;;4956554;28;20412;-83
2023/05/03 04:46:17;;;;;;;10.93;3.00;;;10.30;68.20;;;;;;4947911;28;20397;-83
2023/05/03 04:48:43;;;;;;;5.50;3.28;;;10.30;69.50;;;;;;4962354;28;20027;-84
2023/05/03 04:51:09;;;;;;;9.82;4.93;;;10.20;69.00;;;;;;4978961;28;20101;-81
2023/05/03 04:53:35;;;;;;;7.95;3.25;;;10.10;70.00;;;;;;4981512;28;20038;-85
2023/05/03 04:56:01;;;;;;;3.72;2.40;;;10.00;69.60;;;;;;4981949;28;20038;-83
2023/05/03 04:58:27;;;;;;;5.28;2.65;;;10.00;69.30;;;;;;4964777;28;20022;-82
2023/05/03 05:00:53;;;;;;;6.68;3.65;;;10.00;69.30;;;;;;4973618;28;20383;-82
2023/05/03 05:03:19;;;;;;;6.50;3.35;;;10.00;69.30;;;;;;4969659;28;20023;-81
2023/05/03 05:05:45;;;;;;;5.50;2.90;;;10.10;70.50;;;;;;4968678;28;20047;-81
2023/05/03 05:08:11;;;;;;;4.50;3.28;;;10.10;70.50;;;;;;4968657;28;20033;-79
2023/05/03 05:10:40;;;;;;;5.07;2.45;;;10.10;69.90;;;;;;4968039;28;20388;-81
2023/05/03 05:13:06;;;;;;;6.32;2.95;;;10.30;70.50;;;;;;4945850;28;20503;-81
2023/05/03 05:15:32;;;;;;;6.03;3.10;;;10.40;70.80;;;;;;4970156;28;20031;-82
2023/05/03 05:17:58;;;;;;;5.28;2.63;;;10.60;70.40;;;;;;4970966;28;20025;-81
2023/05/03 05:20:24;;;;;;;4.85;3.05;;;10.70;69.60;;;;;;4968115;28;20034;-81
2023/05/03 05:22:50;;;;;;;4.82;3.05;;;10.90;69.70;;;;;;4973004;28;20093;-83
2023/05/03 05:25:16;;;;;;;8.95;3.05;;;11.00;69.60;;;;;;4976027;28;20098;-80
2023/05/03 05:27:42;;;;;;;5.68;3.00;;;11.10;69.30;;;;;;4975159;28;20054;-80
2023/05/03 05:30:08;;;;;;;5.57;3.05;;;11.10;68.60;;;;;;4961595;28;20103;-81
2023/05/03 05:32:34;;;;;;;9.38;3.60;;;11.10;69.00;;;;;;4957246;28;20497;-79
2023/05/03 05:35:00;;;;;;;6.70;3.28;;;11.10;69.10;;;;;;4955425;28;20019;-81
2023/05/03 05:37:26;;;;;;;2.92;2.17;;;11.00;69.10;;;;;;4959983;28;20050;-82
2023/05/03 05:39:54;;;;;;;5.55;3.22;;;11.00;69.10;;;;;;4973834;28;20098;-81
2023/05/03 05:42:20;;;;;;;5.93;3.10;;;11.10;69.30;;;;;;4961391;28;20062;-82
2023/05/03 05:44:46;;;;;;;8.23;3.35;;;11.30;69.00;;;;;;4960426;28;20067;-83
2023/05/03 05:47:12;;;;;;;5.38;2.80;;;11.40;68.90;;;;;;4971448;28;20062;-81
2023/05/03 05:49:37;;;;;;;7.40;4.03;;;11.50;68.70;;;;;;4966823;28;20027;-81
2023/05/03 05:52:04;;;;;;;5.03;3.95;;;11.60;69.50;;;;;;4968329;28;20046;-81
2023/05/03 05:54:29;;;;;;;5.63;3.40;;;11.90;68.40;;;;;;4977044;28;20043;-84
2023/05/03 05:56:56;;;;;;;11.15;5.55;;;12.00;68.40;;;;;;4959565;28;20035;-81
2023/05/03 05:59:31;;;;;;;7.97;3.65;;;12.10;68.10;;;;;;5075131;27;2236421;-82
2023/05/03 06:01:58;;;;;;;7.95;4.68;;;12.20;67.50;;;;;;5122135;28;20374;-80
2023/05/03 06:04:25;;;;;;;10.40;4.47;;;12.20;67.90;;;;;;5096845;28;20513;-80
2023/05/03 06:06:51;;;;;;;11.82;4.18;;;12.10;67.70;;;;;;5117837;28;20031;-80
2023/05/03 06:09:17;;;;;;;7.85;3.80;;;12.20;68.00;;;;;;5115457;28;20023;-83
2023/05/03 06:11:42;;;;;;;10.10;4.28;;;12.30;67.30;;;;;;5107681;28;20496;-81
2023/05/03 06:14:08;;;;;;;11.82;4.05;;;12.30;67.00;;;;;;5111923;28;20118;-82
2023/05/03 06:16:37;;;;;;;11.50;4.00;;;12.50;66.00;;;;;;5111605;28;20383;-81
2023/05/03 06:19:06;;;;;;;9.02;3.95;;;12.60;65.50;;;;;;5113632;28;20480;-82
2023/05/03 06:21:33;;;;;;;7.90;3.60;;;12.80;65.00;;;;;;5123841;28;20058;-83
2023/05/03 06:23:59;;;;;;;8.80;3.45;;;13.00;64.10;;;;;;5125686;28;20020;-83
2023/05/03 06:26:25;;;;;;;11.98;4.13;;;13.10;64.50;;;;;;5105172;28;20031;-82
2023/05/03 06:28:51;;;;;;;7.55;3.63;;;13.10;63.90;;;;;;5103952;28;20020;-81
2023/05/03 06:31:17;;;;;;;7.68;3.88;;;13.20;64.80;;;;;;5092182;28;20015;-79
2023/05/03 06:33:43;;;;;;;9.05;3.97;;;13.30;65.10;;;;;;5118809;28;20358;-80
2023/05/03 06:36:09;;;;;;;18.27;5.15;;;13.50;64.60;;;;;;5113203;28;20016;-81
2023/05/03 06:38:35;;;;;;;9.48;4.40;;;13.80;63.90;;;;;;5120993;28;20047;-82
2023/05/03 06:41:00;;;;;;;6.60;3.80;;;14.00;62.00;;;;;;5110559;28;20065;-81
2023/05/03 06:43:26;;;;;;;14.05;4.35;;;14.20;61.80;;;;;;5111620;28;20036;-82
2023/05/03 06:45:52;;;;;;;9.95;4.75;;;14.30;61.60;;;;;;5115653;28;20357;-80
2023/05/03 06:48:18;;;;;;;9.80;4.53;;;14.20;61.10;;;;;;5100495;28;20023;-82
2023/05/03 06:50:44;;;;;;;7.78;3.90;;;14.10;61.50;;;;;;5100745;28;20070;-83
2023/05/03 06:53:10;;;;;;;8.65;3.65;;;14.20;62.20;;;;;;5114456;28;20500;-81
2023/05/03 06:55:36;;;;;;;12.05;3.95;;;14.20;61.40;;;;;;5109390;28;20028;-82
2023/05/03 06:58:02;;;;;;;8.25;4.38;;;14.10;61.70;;;;;;5109123;28;20126;-82
2023/05/03 07:00:28;;;;;;;10.32;4.20;;;14.20;61.60;;;;;;5109144;28;20020;-81
2023/05/03 07:02:55;;;;;;;9.05;4.55;;;14.30;60.80;;;;;;5090795;28;20523;-83
2023/05/03 07:05:21;;;;;;;11.23;4.47;;;14.50;61.00;;;;;;5090258;28;20031;-81
2023/05/03 07:07:47;;;;;;;9.32;4.30;;;15.00;60.90;;;;;;5108944;28;20268;-83
2023/05/03 07:10:13;;;;;;;7.97;4.43;;;15.60;59.70;;;;;;5080759;28;20389;-83
2023/05/03 07:12:39;;;;;;;5.57;3.63;;;16.10;58.10;;;;;;5097796;28;20449;-83
2023/05/03 07:15:05;;;;;;;11.70;4.57;;;16.10;57.00;;;;;;5095605;28;20047;-82
2023/05/03 07:17:31;;;;;;;13.17;4.30;;;16.10;57.30;;;;;;5095247;28;20024;-83
2023/05/03 07:19:57;;;;;;;10.13;4.20;;;16.10;57.90;;;;;;5109701;28;20482;-82
2023/05/03 07:22:26;;;;;;;7.63;4.53;;;16.20;57.10;;;;;;5109272;28;20043;-83
2023/05/03 07:24:53;;;;;;;7.68;4.47;;;16.30;57.10;;;;;;5077485;28;20113;-82
2023/05/03 07:27:20;;;;;;;12.63;4.07;;;16.60;56.60;;;;;;5103317;28;20031;-82
2023/05/03 07:29:46;;;;;;;11.32;4.60;;;17.00;56.40;;;;;;5100085;28;20609;-82
2023/05/03 07:32:11;;;;;;;9.25;4.82;;;17.30;55.60;;;;;;5096265;28;20024;-83
2023/05/03 07:34:37;;;;;;;13.73;4.85;;;18.00;54.70;;;;;;5104589;28;20020;-83
2023/05/03 07:37:03;;;;;;;9.68;4.55;;;18.60;53.30;;;;;;5083304;28;20024;-84
2023/05/03 07:39:29;;;;;;;7.10;4.07;;;18.90;52.40;;;;;;5097007;28;20024;-85
2023/05/03 07:41:55;;;;;;;9.73;4.90;;;19.00;51.90;;;;;;5095994;28;20020;-85
2023/05/03 07:44:21;;;;;;;7.18;4.28;;;19.30;51.80;;;;;;5078653;28;20389;-86
2023/05/03 07:46:47;;;;;;;9.88;4.10;;;19.20;50.60;;;;;;5107505;28;20019;-85
2023/05/03 07:49:14;;;;;;;9.88;4.38;;;18.90;51.20;;;;;;5102724;28;20031;-85
2023/05/03 07:51:40;;;;;;;10.30;4.65;;;18.50;51.40;;;;;;5102015;28;20016;-84
2023/05/03 07:54:06;;;;;;;8.37;4.27;;;18.20;52.00;;;;;;5099919;28;20106;-83
2023/05/03 07:56:32;;;;;;;5.03;3.97;;;18.30;52.60;;;;;;5098298;28;20098;-82
2023/05/03 07:58:59;;;;;;;16.42;5.40;;;18.10;51.90;;;;;;5106317;28;20047;-81
2023/05/03 08:01:25;;;;;;;13.50;6.40;;;17.60;53.10;;;;;;5097416;28;20427;-82
2023/05/03 08:03:52;;;;;;;8.82;4.65;;;17.60;53.80;;;;;;5104878;28;20080;-83
2023/05/03 08:06:18;;;;;;;10.40;4.47;;;17.40;54.00;;;;;;5102140;28;20100;-83
2023/05/03 08:08:44;;;;;;;12.00;5.95;;;17.20;53.90;;;;;;5098349;28;20366;-83
2023/05/03 08:11:10;;;;;;;8.27;4.35;;;17.10;55.00;;;;;;5099939;28;20031;-82
2023/05/03 08:13:36;;;;;;;9.35;4.97;;;16.90;55.80;;;;;;5096354;28;20396;-84
2023/05/03 08:16:04;;;;;;;8.52;4.28;;;16.70;55.10;;;;;;5095667;28;20024;-81
2023/05/03 08:18:29;;;;;;;9.38;4.68;;;16.60;55.90;;;;;;5095712;28;20123;-81
2023/05/03 08:20:56;;;;;;;9.00;4.93;;;16.40;55.90;;;;;;5094437;28;20485;-81
2023/05/03 08:23:22;;;;;;;10.32;4.05;;;16.30;56.40;;;;;;5096678;28;20106;-81
2023/05/03 08:25:48;;;;;;;7.93;4.65;;;16.20;56.90;;;;;;5103997;28;20430;-85
2023/05/03 08:28:15;;;;;;;12.20;4.88;;;16.10;56.90;;;;;;5104511;28;20111;-83
2023/05/03 08:30:41;;;;;;;13.65;5.80;;;15.90;57.20;;;;;;5094477;28;20016;-83
2023/05/03 08:33:08;;;;;;;10.55;4.88;;;15.90;58.10;;;;;;5076449;28;20392;-82
2023/05/03 08:35:35;;;;;;;15.88;5.13;;;15.90;58.50;;;;;;5095118;28;20071;-83
2023/05/03 08:38:01;;;;;;;9.52;5.07;;;15.80;59.60;;;;;;5109312;28;20571;-83
2023/05/03 08:40:27;;;;;;;6.45;4.80;;;15.60;60.40;;;;;;5083050;28;20024;-83
2023/05/03 08:42:58;;;;;;;12.05;5.43;;;15.50;60.40;;;;;;5106342;28;20016;-84
2023/05/03 08:45:24;;;;;;;10.82;5.18;;;15.40;60.90;;;;;;5105774;28;20035;-84
2023/05/03 08:47:54;;;;;;;9.15;5.68;;;15.30;61.70;;;;;;5102727;28;20118;-85
2023/05/03 08:50:20;;;;;;;19.23;8.18;;;15.30;63.00;;;;;;5097350;28;20028;-84
2023/05/03 08:52:46;;;;;;;10.77;5.60;;;15.30;63.20;;;;;;5097464;28;20501;-85
2023/05/03 08:55:12;;;;;;;11.68;5.35;;;15.30;63.80;;;;;;5094444;28;20054;-82
2023/05/03 08:57:39;;;;;;;9.43;4.40;;;15.30;64.30;;;;;;5094281;28;20024;-82
2023/05/03 09:00:09;;;;;;;11.02;5.35;;;15.40;63.90;;;;;;5098905;28;20026;-82
2023/05/03 09:02:38;;;;;;;14.00;5.85;;;15.30;63.90;;;;;;5103658;28;20156;-82
2023/05/03 09:05:25;;;;;;;10.98;5.13;;;15.30;64.10;;;;;;5095045;28;20032;-83
2023/05/03 09:08:15;;;;;;;9.23;4.35;;;15.10;64.60;;;;;;5105911;28;20030;-84
2023/05/03 09:10:42;;;;;;;12.88;5.75;;;14.80;63.90;;;;;;5101483;28;20028;-82
2023/05/03 09:13:08;;;;;;;17.38;6.07;;;14.20;66.30;;;;;;5080068;28;20043;-82
2023/05/03 09:15:35;;;;;;;12.73;6.57;;;13.90;68.20;;;;;;5107372;28;20028;-82
2023/05/03 09:18:18;;;;;;;8.63;5.22;;;13.70;69.60;;;;;;5086519;28;20039;-84
2023/05/03 09:20:52;;;;;;;6.93;4.55;;;13.70;70.40;;;;;;5084916;28;20032;-82
2023/05/03 09:23:28;;;;;;;8.98;5.45;;;13.70;69.50;;;;;;5082852;28;20099;-81
2023/05/03 09:25:54;;;;;;;10.38;5.40;;;13.70;69.20;;;;;;5076491;28;20020;-83
2023/05/03 09:28:20;;;;;;;12.18;5.13;;;13.60;70.00;;;;;;5108001;28;20075;-82
2023/05/03 09:30:48;;;;;;;12.80;5.10;;;13.50;70.90;;;;;;5111812;28;20099;-84
2023/05/03 09:33:21;;;;;;;6.63;5.13;;;13.50;70.50;;;;;;5095152;28;20024;-82
2023/05/03 09:36:01;;;;;;;11.70;5.40;;;13.40;70.80;;;;;;5095888;28;20026;-84
2023/05/03 09:38:29;;;;;;;5.90;3.72;;;13.20;71.40;;;;;;5079818;28;20488;-85
2023/05/03 09:40:56;;;;;;;6.13;3.70;;;13.20;71.50;;;;;;5097299;28;20062;-84
2023/05/03 09:43:22;;;;;;;11.93;4.88;;;13.40;71.20;;;;;;5101883;28;20107;-83
2023/05/03 09:45:48;;;;;;;7.47;5.30;;;13.70;70.70;;;;;;5098982;28;20074;-83
2023/05/03 09:48:15;;;;;;;9.10;5.82;;;14.10;70.00;;;;;;5107443;28;20064;-81
2023/05/03 09:50:42;;;;;;;11.20;5.88;;;14.30;69.30;;;;;;5110700;28;20031;-83
2023/05/03 09:53:09;;;;;;;11.00;5.53;;;14.20;69.30;;;;;;5096114;28;20048;-83
2023/05/03 09:55:37;;;;;;;12.18;5.88;;;14.10;70.00;;;;;;5106467;28;20017;-83
2023/05/03 09:58:06;;;;;;;6.25;4.57;;;14.00;70.80;;;;;;5093680;28;20390;-82
2023/05/03 10:00:39;;;;;;;11.48;5.85;;;13.80;70.90;;;;;;5094303;28;20098;-82
2023/05/03 10:03:11;;;;;;;12.80;5.57;;;13.80;71.90;;;;;;5096572;28;20020;-83
2023/05/03 10:05:49;;;;;;;7.97;5.63;;;14.10;71.80;;;;;;5101260;28;20357;-83
2023/05/03 10:08:31;;;;;;;13.05;5.97;;;14.30;70.50;;;;;;5097201;28;20028;-83
2023/05/03 10:10:57;;;;;;;10.45;5.80;;;14.50;70.50;;;;;;5092962;28;20076;-82
2023/05/03 10:13:23;;;;;;;9.90;6.28;;;14.60;70.10;;;;;;5092544;28;20362;-83
2023/05/03 10:15:58;;;;;;;16.43;5.93;;;15.10;69.80;;;;;;5074598;28;20024;-83
2023/05/03 10:18:28;;;;;;;12.85;6.63;;;15.40;68.30;;;;;;5092048;28;20516;-84
2023/05/03 10:20:58;;;;;;;10.18;5.72;;;15.50;67.90;;;;;;5091987;28;20396;-83
2023/05/03 10:23:25;;;;;;;13.07;7.45;;;15.50;67.50;;;;;;5092159;28;20029;-83
2023/05/03 10:26:12;;;;;;;13.70;6.37;;;15.50;67.50;;;;;;5092497;28;20043;-83
2023/05/03 10:28:38;;;;;;;11.45;5.20;;;15.50;67.90;;;;;;5092617;28;20355;-82
2023/05/03 10:31:04;;;;;;;13.68;5.82;;;15.60;67.40;;;;;;5093743;28;20084;-83
2023/05/03 10:33:32;;;;;;;11.50;5.85;;;15.50;67.20;;;;;;5074027;28;20122;-85
2023/05/03 10:36:00;;;;;;;8.80;6.15;;;15.50;67.40;;;;;;5073818;28;20016;-83
2023/05/03 10:38:27;;;;;;;;;;;15.40;67.20;;;;;;5092263;28;20028;-83
2023/05/03 10:40:56;;;;;;;8.40;5.97;;;15.30;67.20;;;;;;5092145;28;19912;-83
2023/05/03 10:43:36;;;;;;;13.68;7.35;;;15.40;67.80;;;;;;5092042;28;20028;-82
2023/05/03 10:46:10;;;;;;;11.13;6.00;;;15.70;67.80;;;;;;5095650;28;20016;-83
2023/05/03 10:48:36;;;;;;;8.10;5.20;;;15.80;66.20;;;;;;5096704;28;20024;-84
2023/05/03 10:51:35;;;;;;;8.48;5.50;;;15.90;66.80;;;;;;5097820;28;20073;-83
2023/05/03 10:54:01;;;;;;;10.32;6.32;;;16.00;65.60;;;;;;5096118;28;20377;-83
2023/05/03 10:56:27;;;;;;;7.90;5.57;;;16.20;65.60;;;;;;5095803;28;20027;-82
2023/05/03 10:58:57;;;;;;;8.13;5.55;;;16.60;64.90;;;;;;5098586;28;20071;-83
2023/05/03 11:01:25;;;;;;;12.45;5.75;;;16.70;64.10;;;;;;5084133;28;20020;-83
2023/05/03 11:04:12;;;;;;;9.52;5.70;;;16.90;64.50;;;;;;5099448;28;20016;-83
2023/05/03 11:06:42;;;;;;;;;;;17.20;63.80;;;;;;5095894;28;20062;-83
2023/05/03 11:09:10;;;;;;;9.00;5.35;;;17.30;62.90;;;;;;5095522;28;19949;-83
2023/05/03 11:11:38;;;;;;;8.00;4.70;;;17.20;62.50;;;;;;5094882;28;20381;-84
2023/05/03 11:14:05;;;;;;;10.02;6.18;;;16.90;62.50;;;;;;5097215;28;20050;-85
2023/05/03 11:16:31;;;;;;;13.40;6.00;;;16.50;63.90;;;;;;5096933;28;20052;-83
2023/05/03 11:18:58;;;;;;;10.38;4.60;;;16.20;64.00;;;;;;5098090;28;20501;-85
2023/05/03 11:21:25;;;;;;;7.82;4.75;;;16.10;65.10;;;;;;5096522;28;20021;-83
2023/05/03 11:23:50;;;;;;;14.02;5.47;;;16.10;65.00;;;;;;5079244;28;20036;-84
2023/05/03 11:26:17;;;;;;;8.30;5.22;;;16.10;65.10;;;;;;5095388;28;20096;-83
2023/05/03 11:28:44;;;;;;;9.27;5.00;;;16.10;64.80;;;;;;5095530;28;20364;-83
2023/05/03 11:31:11;;;;;;;8.77;5.50;;;16.00;65.10;;;;;;5077748;28;20031;-84
2023/05/03 11:33:38;;;;;;;7.05;4.30;;;16.10;65.20;;;;;;5100687;28;20065;-83
2023/05/03 11:36:07;;;;;;;7.65;5.32;;;16.20;64.50;;;;;;5107962;28;20075;-84
2023/05/03 11:38:34;;;;;;;13.27;6.00;;;16.10;64.80;;;;;;5097781;28;20042;-84
2023/05/03 11:41:08;;;;;;;9.82;5.45;;;16.20;64.80;;;;;;5077998;28;20054;-84
2023/05/03 11:43:43;;;;;;;9.48;5.70;;;16.40;64.30;;;;;;5095508;28;20036;-85
2023/05/03 11:46:09;;;;;;;40.05;6.80;;;16.40;64.00;;;;;;5094998;28;20061;-83
2023/05/03 11:48:36;;;;;;;12.35;5.85;;;16.30;63.70;;;;;;5095309;28;20413;-85
2023/05/03 11:51:07;;;;;;;20.20;7.25;;;16.30;63.70;;;;;;5076660;28;20024;-84
2023/05/03 11:53:33;;;;;;;7.65;5.20;;;16.10;64.10;;;;;;5077450;28;20032;-84
2023/05/03 11:55:59;;;;;;;11.00;5.53;;;15.90;63.70;;;;;;5095422;28;20027;-84
2023/05/03 11:58:26;;;;;;;9.10;4.72;;;15.80;64.10;;;;;;5097473;28;20036;-84
2023/05/03 12:00:54;;;;;;;9.77;4.73;;;15.80;64.90;;;;;;5082043;28;20254;-85
2023/05/03 12:03:22;;;;;;;8.90;4.50;;;15.80;64.90;;;;;;5096621;28;20609;-84
2023/05/03 12:05:50;;;;;;;6.90;4.68;;;15.80;64.70;;;;;;5079454;28;20024;-84
2023/05/03 12:08:18;;;;;;;6.63;4.28;;;15.70;64.70;;;;;;5097456;28;20020;-85
2023/05/03 12:10:44;;;;;;;9.23;4.82;;;15.60;64.90;;;;;;5102642;28;20067;-86
2023/05/03 12:13:11;;;;;;;7.43;3.72;;;15.50;65.40;;;;;;5099393;28;20027;-85
2023/05/03 12:15:38;;;;;;;8.48;4.30;;;15.70;64.60;;;;;;5094711;28;20480;-85
2023/05/03 12:18:07;;;;;;;9.27;4.00;;;15.70;63.90;;;;;;5096241;28;20068;-84
2023/05/03 12:20:35;;;;;;;8.02;4.95;;;15.70;64.90;;;;;;5096348;28;20020;-83
2023/05/03 12:23:02;;;;;;;;;;;15.90;64.90;;;;;;5097046;28;20027;-83
2023/05/03 12:25:30;;;;;;;10.95;4.95;;;16.10;63.90;;;;;;5109865;28;19911;-84
2023/05/03 12:27:58;;;;;;;13.05;5.18;;;16.30;63.10;;;;;;5094490;28;20020;-86
2023/05/03 12:30:25;;;;;;;7.97;5.30;;;16.40;62.40;;;;;;5095151;28;20065;-84
2023/05/03 12:32:52;;;;;;;6.57;5.32;;;16.40;62.10;;;;;;5099788;28;20020;-85
2023/05/03 12:35:19;;;;;;;7.18;3.95;;;16.40;61.80;;;;;;5111037;28;20034;-83
2023/05/03 12:37:46;;;;;;;11.88;3.20;;;16.40;61.70;;;;;;5076989;28;20031;-82
2023/05/03 12:40:13;;;;;;;10.27;4.25;;;16.50;61.00;;;;;;5052047;28;20465;-84
2023/05/03 12:42:42;;;;;;;12.40;4.18;;;16.50;61.70;;;;;;5050872;28;20114;-84
2023/05/03 12:45:10;;;;;;;8.60;4.57;;;16.40;62.00;;;;;;5062594;28;20386;-85
2023/05/03 12:47:35;;;;;;;;;;;16.30;62.50;;;;;;5053863;28;20466;-85
2023/05/03 12:50:02;;;;;;;6.43;4.30;;;16.20;62.60;;;;;;5061295;28;19991;-84